sensor_id;sensor_type;location;lat;lon;timestamp;P1;durP1;ratioP1;P2;durP2;ratioP2
5475;SDS011;2760;50.000;9.194;2023-04-25T00:01:55;8.60;;;7.10;;
5475;SDS011;2760;50.000;9.194;2023-04-25T00:04:24;9.33;;;7.50;;
5475;SDS011;2760;50.000;9.194;2023-04-25T00:06:52;11.20;;;7.57;;
5475;SDS011;2760;50.000;9.194;2023-04-25T00:09:21;9.27;;;6.93;;
5475;SDS011;2760;50.000;9.194;2023-04-25T00:11:49;14.00;;;7.80;;
5475;SDS011;2760;50.000;9.194;2023-04-25T00:14:16;8.77;;;6.70;;
5475;SDS011;2760;50.000;9.194;2023-04-25T00:16:43;9.37;;;7.20;;
5475;SDS011;2760;50.000;9.194;2023-04-25T00:19:10;9.27;;;7.10;;
5475;SDS011;2760;50.000;9.194;2023-04-25T00:21:38;12.43;;;8.20;;
5475;SDS011;2760;50.000;9.194;2023-04-25T00:24:05;10.80;;;8.23;;
5475;SDS011;2760;50.000;9.194;2023-04-25T00:26:34;12.87;;;8.53;;
5475;SDS011;2760;50.000;9.194;2023-04-25T00:29:02;10.40;;;7.70;;
5475;SDS011;2760;50.000;9.194;2023-04-25T00:31:29;10.03;;;7.57;;
5475;SDS011;2760;50.000;9.194;2023-04-25T00:33:56;10.83;;;7.60;;
5475;SDS011;2760;50.000;9.194;2023-04-25T00:36:24;8.27;;;6.90;;
5475;SDS011;2760;50.000;9.194;2023-04-25T00:38:52;7.60;;;6.80;;
5475;SDS011;2760;50.000;9.194;2023-04-25T00:41:20;11.23;;;7.00;;
5475;SDS011;2760;50.000;9.194;2023-04-25T00:43:49;9.40;;;6.97;;
5475;SDS011;2760;50.000;9.194;2023-04-25T00:46:17;7.43;;;6.70;;
5475;SDS011;2760;50.000;9.194;2023-04-25T00:48:45;8.50;;;6.73;;
5475;SDS011;2760;50.000;9.194;2023-04-25T00:51:13;9.43;;;6.97;;
5475;SDS011;2760;50.000;9.194;2023-04-25T00:53:45;9.63;;;7.00;;
5475;SDS011;2760;50.000;9.194;2023-04-25T00:56:13;8.00;;;6.73;;
5475;SDS011;2760;50.000;9.194;2023-04-25T00:58:41;11.40;;;7.07;;
5475;SDS011;2760;50.000;9.194;2023-04-25T01:01:10;9.77;;;7.00;;
5475;SDS011;2760;50.000;9.194;2023-04-25T01:03:38;10.90;;;7.23;;
5475;SDS011;2760;50.000;9.194;2023-04-25T01:06:07;10.13;;;8.00;;
5475;SDS011;2760;50.000;9.194;2023-04-25T01:08:36;11.30;;;6.97;;
5475;SDS011;2760;50.000;9.194;2023-04-25T01:11:04;9.57;;;6.40;;
5475;SDS011;2760;50.000;9.194;2023-04-25T01:13:32;7.60;;;6.03;;
5475;SDS011;2760;50.000;9.194;2023-04-25T01:16:00;8.03;;;6.57;;
5475;SDS011;2760;50.000;9.194;2023-04-25T01:18:30;6.20;;;5.60;;
5475;SDS011;2760;50.000;9.194;2023-04-25T01:21:02;8.57;;;6.10;;
5475;SDS011;2760;50.000;9.194;2023-04-25T01:23:35;6.90;;;6.00;;
5475;SDS011;2760;50.000;9.194;2023-04-25T01:26:03;9.87;;;6.67;;
5475;SDS011;2760;50.000;9.194;2023-04-25T01:28:31;7.57;;;6.27;;
5475;SDS011;2760;50.000;9.194;2023-04-25T01:31:00;11.33;;;6.90;;
5475;SDS011;2760;50.000;9.194;2023-04-25T01:33:28;8.20;;;6.63;;
5475;SDS011;2760;50.000;9.194;2023-04-25T01:35:56;10.33;;;6.57;;
5475;SDS011;2760;50.000;9.194;2023-04-25T01:38:25;6.43;;;5.70;;
5475;SDS011;2760;50.000;9.194;2023-04-25T01:40:53;8.87;;;6.27;;
5475;SDS011;2760;50.000;9.194;2023-04-25T01:43:21;6.97;;;6.30;;
5475;SDS011;2760;50.000;9.194;2023-04-25T01:45:49;8.80;;;6.57;;
5475;SDS011;2760;50.000;9.194;2023-04-25T01:48:17;7.20;;;6.20;;
5475;SDS011;2760;50.000;9.194;2023-04-25T01:50:46;7.60;;;6.80;;
5475;SDS011;2760;50.000;9.194;2023-04-25T01:53:13;10.50;;;7.33;;
5475;SDS011;2760;50.000;9.194;2023-04-25T01:55:44;9.60;;;6.83;;
5475;SDS011;2760;50.000;9.194;2023-04-25T01:58:14;10.57;;;6.70;;
5475;SDS011;2760;50.000;9.194;2023-04-25T02:01:01;9.57;;;7.00;;
5475;SDS011;2760;50.000;9.194;2023-04-25T02:03:36;8.87;;;6.80;;
5475;SDS011;2760;50.000;9.194;2023-04-25T02:06:07;9.23;;;7.37;;
5475;SDS011;2760;50.000;9.194;2023-04-25T02:08:39;10.43;;;7.20;;
5475;SDS011;2760;50.000;9.194;2023-04-25T02:11:08;8.17;;;7.00;;
5475;SDS011;2760;50.000;9.194;2023-04-25T02:14:01;10.97;;;7.80;;
5475;SDS011;2760;50.000;9.194;2023-04-25T02:16:43;7.10;;;6.40;;
5475;SDS011;2760;50.000;9.194;2023-04-25T02:19:11;9.37;;;7.53;;
5475;SDS011;2760;50.000;9.194;2023-04-25T02:21:39;9.73;;;7.60;;
5475;SDS011;2760;50.000;9.194;2023-04-25T02:24:07;8.10;;;7.17;;
5475;SDS011;2760;50.000;9.194;2023-04-25T02:26:38;9.87;;;6.67;;
5475;SDS011;2760;50.000;9.194;2023-04-25T02:29:07;7.23;;;6.53;;
5475;SDS011;2760;50.000;9.194;2023-04-25T02:31:35;10.63;;;7.10;;
5475;SDS011;2760;50.000;9.194;2023-04-25T02:34:02;9.83;;;7.77;;
5475;SDS011;2760;50.000;9.194;2023-04-25T02:36:30;9.83;;;7.50;;
5475;SDS011;2760;50.000;9.194;2023-04-25T02:38:59;8.00;;;7.20;;
5475;SDS011;2760;50.000;9.194;2023-04-25T02:41:28;9.33;;;7.37;;
5475;SDS011;2760;50.000;9.194;2023-04-25T02:43:57;15.70;;;7.83;;
5475;SDS011;2760;50.000;9.194;2023-04-25T02:46:24;8.53;;;7.63;;
5475;SDS011;2760;50.000;9.194;2023-04-25T02:48:51;9.67;;;7.87;;
5475;SDS011;2760;50.000;9.194;2023-04-25T02:51:19;13.50;;;8.80;;
5475;SDS011;2760;50.000;9.194;2023-04-25T02:53:46;9.20;;;6.63;;
5475;SDS011;2760;50.000;9.194;2023-04-25T02:56:14;12.40;;;8.30;;
5475;SDS011;2760;50.000;9.194;2023-04-25T02:58:41;11.07;;;7.90;;
5475;SDS011;2760;50.000;9.194;2023-04-25T03:01:13;10.20;;;7.60;;
5475;SDS011;2760;50.000;9.194;2023-04-25T03:03:41;8.37;;;6.80;;
5475;SDS011;2760;50.000;9.194;2023-04-25T03:06:08;9.77;;;7.70;;
5475;SDS011;2760;50.000;9.194;2023-04-25T03:08:40;10.37;;;7.43;;
5475;SDS011;2760;50.000;9.194;2023-04-25T03:11:09;11.47;;;8.10;;
5475;SDS011;2760;50.000;9.194;2023-04-25T03:13:36;10.07;;;8.03;;
5475;SDS011;2760;50.000;9.194;2023-04-25T03:16:05;12.33;;;8.90;;
5475;SDS011;2760;50.000;9.194;2023-04-25T03:18:34;11.73;;;8.83;;
5475;SDS011;2760;50.000;9.194;2023-04-25T03:21:02;12.33;;;8.30;;
5475;SDS011;2760;50.000;9.194;2023-04-25T03:23:30;11.80;;;8.90;;
5475;SDS011;2760;50.000;9.194;2023-04-25T03:25:58;9.57;;;7.70;;
5475;SDS011;2760;50.000;9.194;2023-04-25T03:28:25;9.10;;;7.37;;
5475;SDS011;2760;50.000;9.194;2023-04-25T03:30:55;10.60;;;8.30;;
5475;SDS011;2760;50.000;9.194;2023-04-25T03:33:23;9.20;;;8.10;;
5475;SDS011;2760;50.000;9.194;2023-04-25T03:35:57;8.93;;;7.97;;
5475;SDS011;2760;50.000;9.194;2023-04-25T03:38:27;16.13;;;8.70;;
5475;SDS011;2760;50.000;9.194;2023-04-25T03:40:55;11.30;;;7.93;;
5475;SDS011;2760;50.000;9.194;2023-04-25T03:43:43;12.37;;;8.83;;
5475;SDS011;2760;50.000;9.194;2023-04-25T03:46:12;13.23;;;9.13;;
5475;SDS011;2760;50.000;9.194;2023-04-25T03:48:48;11.70;;;9.20;;
5475;SDS011;2760;50.000;9.194;2023-04-25T03:51:22;13.77;;;9.10;;
5475;SDS011;2760;50.000;9.194;2023-04-25T03:53:51;16.10;;;9.47;;
5475;SDS011;2760;50.000;9.194;2023-04-25T03:56:19;12.03;;;9.27;;
5475;SDS011;2760;50.000;9.194;2023-04-25T03:58:53;12.73;;;9.27;;
5475;SDS011;2760;50.000;9.194;2023-04-25T04:01:23;10.90;;;8.70;;
5475;SDS011;2760;50.000;9.194;2023-04-25T04:03:51;22.03;;;11.00;;
5475;SDS011;2760;50.000;9.194;2023-04-25T04:06:19;13.20;;;10.30;;
5475;SDS011;2760;50.000;9.194;2023-04-25T04:08:56;15.73;;;11.23;;
5475;SDS011;2760;50.000;9.194;2023-04-25T04:11:23;12.77;;;10.07;;
5475;SDS011;2760;50.000;9.194;2023-04-25T04:13:55;15.70;;;10.70;;
5475;SDS011;2760;50.000;9.194;2023-04-25T04:16:22;15.70;;;10.17;;
5475;SDS011;2760;50.000;9.194;2023-04-25T04:18:50;17.13;;;10.83;;
5475;SDS011;2760;50.000;9.194;2023-04-25T04:21:17;16.50;;;10.67;;
5475;SDS011;2760;50.000;9.194;2023-04-25T04:23:46;19.80;;;11.83;;
5475;SDS011;2760;50.000;9.194;2023-04-25T04:26:13;18.23;;;12.50;;
5475;SDS011;2760;50.000;9.194;2023-04-25T04:28:54;16.60;;;11.70;;
5475;SDS011;2760;50.000;9.194;2023-04-25T04:31:30;21.73;;;11.00;;
5475;SDS011;2760;50.000;9.194;2023-04-25T04:33:58;21.63;;;12.00;;
5475;SDS011;2760;50.000;9.194;2023-04-25T04:36:26;13.43;;;10.63;;
5475;SDS011;2760;50.000;9.194;2023-04-25T04:38:55;16.30;;;11.30;;
5475;SDS011;2760;50.000;9.194;2023-04-25T04:41:34;16.33;;;11.10;;
5475;SDS011;2760;50.000;9.194;2023-04-25T04:44:08;19.30;;;11.93;;
5475;SDS011;2760;50.000;9.194;2023-04-25T04:46:48;15.67;;;10.77;;
5475;SDS011;2760;50.000;9.194;2023-04-25T04:49:31;18.03;;;11.70;;
5475;SDS011;2760;50.000;9.194;2023-04-25T04:52:09;18.87;;;12.70;;
5475;SDS011;2760;50.000;9.194;2023-04-25T04:54:52;16.20;;;11.23;;
5475;SDS011;2760;50.000;9.194;2023-04-25T04:57:38;16.97;;;11.70;;
5475;SDS011;2760;50.000;9.194;2023-04-25T05:00:26;16.20;;;11.13;;
5475;SDS011;2760;50.000;9.194;2023-04-25T05:03:23;14.50;;;10.87;;
5475;SDS011;2760;50.000;9.194;2023-04-25T05:06:09;16.90;;;11.00;;
5475;SDS011;2760;50.000;9.194;2023-04-25T05:08:50;14.53;;;9.40;;
5475;SDS011;2760;50.000;9.194;2023-04-25T05:11:21;15.80;;;10.93;;
5475;SDS011;2760;50.000;9.194;2023-04-25T05:14:12;14.07;;;10.10;;
5475;SDS011;2760;50.000;9.194;2023-04-25T05:16:46;18.07;;;10.90;;
5475;SDS011;2760;50.000;9.194;2023-04-25T05:19:36;19.40;;;11.10;;
5475;SDS011;2760;50.000;9.194;2023-04-25T05:22:16;17.30;;;10.73;;
5475;SDS011;2760;50.000;9.194;2023-04-25T05:24:54;20.13;;;10.37;;
5475;SDS011;2760;50.000;9.194;2023-04-25T05:27:50;18.10;;;9.90;;
5475;SDS011;2760;50.000;9.194;2023-04-25T05:30:42;18.83;;;9.77;;
5475;SDS011;2760;50.000;9.194;2023-04-25T05:33:25;17.67;;;8.03;;
5475;SDS011;2760;50.000;9.194;2023-04-25T05:35:52;19.60;;;10.30;;
5475;SDS011;2760;50.000;9.194;2023-04-25T05:38:20;15.63;;;8.50;;
5475;SDS011;2760;50.000;9.194;2023-04-25T05:41:18;17.33;;;8.17;;
5475;SDS011;2760;50.000;9.194;2023-04-25T05:43:52;13.80;;;8.30;;
5475;SDS011;2760;50.000;9.194;2023-04-25T05:46:25;15.77;;;8.47;;
5475;SDS011;2760;50.000;9.194;2023-04-25T05:49:28;17.10;;;8.20;;
5475;SDS011;2760;50.000;9.194;2023-04-25T05:52:08;8.33;;;5.00;;
5475;SDS011;2760;50.000;9.194;2023-04-25T05:54:55;9.93;;;6.07;;
5475;SDS011;2760;50.000;9.194;2023-04-25T05:57:22;6.80;;;5.17;;
5475;SDS011;2760;50.000;9.194;2023-04-25T05:59:52;14.07;;;6.17;;
5475;SDS011;2760;50.000;9.194;2023-04-25T06:02:20;14.80;;;6.47;;
5475;SDS011;2760;50.000;9.194;2023-04-25T06:04:49;11.70;;;6.37;;
5475;SDS011;2760;50.000;9.194;2023-04-25T06:07:16;10.97;;;5.40;;
5475;SDS011;2760;50.000;9.194;2023-04-25T06:09:45;15.47;;;5.50;;
5475;SDS011;2760;50.000;9.194;2023-04-25T06:12:14;12.00;;;5.13;;
5475;SDS011;2760;50.000;9.194;2023-04-25T06:14:41;11.17;;;5.57;;
5475;SDS011;2760;50.000;9.194;2023-04-25T06:17:11;14.17;;;6.33;;
5475;SDS011;2760;50.000;9.194;2023-04-25T06:19:38;7.27;;;5.17;;
5475;SDS011;2760;50.000;9.194;2023-04-25T06:22:06;9.30;;;5.70;;
5475;SDS011;2760;50.000;9.194;2023-04-25T06:24:37;10.53;;;4.87;;
5475;SDS011;2760;50.000;9.194;2023-04-25T06:27:08;11.53;;;6.40;;
5475;SDS011;2760;50.000;9.194;2023-04-25T06:29:36;16.90;;;6.40;;
5475;SDS011;2760;50.000;9.194;2023-04-25T06:32:03;7.47;;;5.77;;
5475;SDS011;2760;50.000;9.194;2023-04-25T06:34:34;12.33;;;5.40;;
5475;SDS011;2760;50.000;9.194;2023-04-25T06:37:05;14.57;;;5.20;;
5475;SDS011;2760;50.000;9.194;2023-04-25T06:39:32;5.30;;;4.10;;
5475;SDS011;2760;50.000;9.194;2023-04-25T06:41:59;15.67;;;4.67;;
5475;SDS011;2760;50.000;9.194;2023-04-25T06:44:44;11.57;;;5.10;;
5475;SDS011;2760;50.000;9.194;2023-04-25T06:47:13;7.60;;;4.77;;
5475;SDS011;2760;50.000;9.194;2023-04-25T06:49:43;9.43;;;5.30;;
5475;SDS011;2760;50.000;9.194;2023-04-25T06:52:11;6.00;;;4.20;;
5475;SDS011;2760;50.000;9.194;2023-04-25T06:54:38;18.63;;;4.70;;
5475;SDS011;2760;50.000;9.194;2023-04-25T06:57:18;12.70;;;5.43;;
5475;SDS011;2760;50.000;9.194;2023-04-25T06:59:45;8.63;;;4.37;;
5475;SDS011;2760;50.000;9.194;2023-04-25T07:02:15;11.23;;;4.70;;
5475;SDS011;2760;50.000;9.194;2023-04-25T07:04:45;6.10;;;4.10;;
5475;SDS011;2760;50.000;9.194;2023-04-25T07:07:12;15.30;;;4.20;;
5475;SDS011;2760;50.000;9.194;2023-04-25T07:09:46;8.03;;;3.50;;
5475;SDS011;2760;50.000;9.194;2023-04-25T07:12:14;18.47;;;5.30;;
5475;SDS011;2760;50.000;9.194;2023-04-25T07:14:42;14.93;;;4.07;;
5475;SDS011;2760;50.000;9.194;2023-04-25T07:17:10;21.00;;;5.20;;
5475;SDS011;2760;50.000;9.194;2023-04-25T07:19:38;12.10;;;5.03;;
5475;SDS011;2760;50.000;9.194;2023-04-25T07:22:08;25.10;;;5.70;;
5475;SDS011;2760;50.000;9.194;2023-04-25T07:24:38;13.90;;;3.90;;
5475;SDS011;2760;50.000;9.194;2023-04-25T07:27:10;7.40;;;3.97;;
5475;SDS011;2760;50.000;9.194;2023-04-25T07:29:49;6.00;;;3.70;;
5475;SDS011;2760;50.000;9.194;2023-04-25T07:32:16;9.70;;;4.57;;
5475;SDS011;2760;50.000;9.194;2023-04-25T07:34:43;7.53;;;4.20;;
5475;SDS011;2760;50.000;9.194;2023-04-25T07:37:11;3.97;;;3.57;;
5475;SDS011;2760;50.000;9.194;2023-04-25T07:39:53;11.60;;;4.00;;
5475;SDS011;2760;50.000;9.194;2023-04-25T07:42:20;3.93;;;3.57;;
5475;SDS011;2760;50.000;9.194;2023-04-25T07:44:47;7.77;;;4.07;;
5475;SDS011;2760;50.000;9.194;2023-04-25T07:47:15;15.67;;;4.37;;
5475;SDS011;2760;50.000;9.194;2023-04-25T07:49:44;6.77;;;4.40;;
5475;SDS011;2760;50.000;9.194;2023-04-25T07:52:13;9.80;;;4.13;;
5475;SDS011;2760;50.000;9.194;2023-04-25T07:54:48;5.70;;;4.40;;
5475;SDS011;2760;50.000;9.194;2023-04-25T07:57:20;8.60;;;4.70;;
5475;SDS011;2760;50.000;9.194;2023-04-25T07:59:50;8.73;;;3.97;;
5475;SDS011;2760;50.000;9.194;2023-04-25T08:02:18;7.50;;;3.90;;
5475;SDS011;2760;50.000;9.194;2023-04-25T08:04:45;9.93;;;4.77;;
5475;SDS011;2760;50.000;9.194;2023-04-25T08:07:17;4.63;;;3.93;;
5475;SDS011;2760;50.000;9.194;2023-04-25T08:09:49;12.17;;;4.73;;
5475;SDS011;2760;50.000;9.194;2023-04-25T08:12:25;8.50;;;3.60;;
5475;SDS011;2760;50.000;9.194;2023-04-25T08:14:52;10.60;;;4.30;;
5475;SDS011;2760;50.000;9.194;2023-04-25T08:17:19;9.20;;;5.80;;
5475;SDS011;2760;50.000;9.194;2023-04-25T08:19:46;8.90;;;4.50;;
5475;SDS011;2760;50.000;9.194;2023-04-25T08:22:23;9.40;;;4.93;;
5475;SDS011;2760;50.000;9.194;2023-04-25T08:25:06;5.20;;;4.27;;
5475;SDS011;2760;50.000;9.194;2023-04-25T08:27:33;5.97;;;4.13;;
5475;SDS011;2760;50.000;9.194;2023-04-25T08:30:00;11.60;;;4.87;;
5475;SDS011;2760;50.000;9.194;2023-04-25T08:32:29;20.30;;;5.20;;
5475;SDS011;2760;50.000;9.194;2023-04-25T08:35:14;11.57;;;3.80;;
5475;SDS011;2760;50.000;9.194;2023-04-25T08:37:44;6.90;;;4.30;;
5475;SDS011;2760;50.000;9.194;2023-04-25T08:40:14;7.60;;;4.57;;
5475;SDS011;2760;50.000;9.194;2023-04-25T08:42:48;17.97;;;4.23;;
5475;SDS011;2760;50.000;9.194;2023-04-25T08:45:17;8.50;;;4.30;;
5475;SDS011;2760;50.000;9.194;2023-04-25T08:47:45;11.00;;;3.87;;
5475;SDS011;2760;50.000;9.194;2023-04-25T08:50:14;23.80;;;4.70;;
5475;SDS011;2760;50.000;9.194;2023-04-25T08:52:46;8.57;;;3.83;;
5475;SDS011;2760;50.000;9.194;2023-04-25T08:55:17;16.20;;;4.07;;
5475;SDS011;2760;50.000;9.194;2023-04-25T08:57:48;3.43;;;3.13;;
5475;SDS011;2760;50.000;9.194;2023-04-25T09:00:17;7.43;;;3.50;;
5475;SDS011;2760;50.000;9.194;2023-04-25T09:02:46;17.23;;;4.37;;
5475;SDS011;2760;50.000;9.194;2023-04-25T09:05:13;11.53;;;4.40;;
5475;SDS011;2760;50.000;9.194;2023-04-25T09:07:41;8.90;;;3.50;;
5475;SDS011;2760;50.000;9.194;2023-04-25T09:10:11;9.50;;;4.03;;
5475;SDS011;2760;50.000;9.194;2023-04-25T09:12:38;14.23;;;3.60;;
5475;SDS011;2760;50.000;9.194;2023-04-25T09:15:07;8.83;;;3.40;;
5475;SDS011;2760;50.000;9.194;2023-04-25T09:18:03;7.33;;;3.10;;
5475;SDS011;2760;50.000;9.194;2023-04-25T09:20:43;7.37;;;3.90;;
5475;SDS011;2760;50.000;9.194;2023-04-25T09:23:10;4.83;;;3.60;;
5475;SDS011;2760;50.000;9.194;2023-04-25T09:25:39;2.80;;;2.30;;
5475;SDS011;2760;50.000;9.194;2023-04-25T09:28:09;5.83;;;3.40;;
5475;SDS011;2760;50.000;9.194;2023-04-25T09:30:37;4.70;;;2.87;;
5475;SDS011;2760;50.000;9.194;2023-04-25T09:33:17;6.70;;;3.90;;
5475;SDS011;2760;50.000;9.194;2023-04-25T09:35:48;3.70;;;2.83;;
5475;SDS011;2760;50.000;9.194;2023-04-25T09:38:29;5.37;;;3.33;;
5475;SDS011;2760;50.000;9.194;2023-04-25T09:41:08;5.90;;;4.17;;
5475;SDS011;2760;50.000;9.194;2023-04-25T09:43:44;11.90;;;3.87;;
5475;SDS011;2760;50.000;9.194;2023-04-25T09:46:12;6.10;;;3.63;;
5475;SDS011;2760;50.000;9.194;2023-04-25T09:48:47;6.17;;;3.60;;
5475;SDS011;2760;50.000;9.194;2023-04-25T09:51:18;6.03;;;3.43;;
5475;SDS011;2760;50.000;9.194;2023-04-25T09:53:46;5.87;;;2.97;;
5475;SDS011;2760;50.000;9.194;2023-04-25T09:56:37;8.37;;;3.60;;
5475;SDS011;2760;50.000;9.194;2023-04-25T09:59:06;8.30;;;3.70;;
5475;SDS011;2760;50.000;9.194;2023-04-25T10:01:36;12.23;;;4.33;;
5475;SDS011;2760;50.000;9.194;2023-04-25T10:04:11;8.47;;;4.50;;
5475;SDS011;2760;50.000;9.194;2023-04-25T10:06:51;10.87;;;4.60;;
5475;SDS011;2760;50.000;9.194;2023-04-25T10:09:21;12.60;;;3.93;;
5475;SDS011;2760;50.000;9.194;2023-04-25T10:11:58;6.40;;;4.47;;
5475;SDS011;2760;50.000;9.194;2023-04-25T10:14:26;11.77;;;5.40;;
5475;SDS011;2760;50.000;9.194;2023-04-25T10:16:53;18.47;;;5.73;;
5475;SDS011;2760;50.000;9.194;2023-04-25T10:19:22;7.33;;;4.70;;
5475;SDS011;2760;50.000;9.194;2023-04-25T10:21:52;7.07;;;4.33;;
5475;SDS011;2760;50.000;9.194;2023-04-25T10:24:22;15.53;;;4.77;;
5475;SDS011;2760;50.000;9.194;2023-04-25T10:26:53;14.63;;;4.90;;
5475;SDS011;2760;50.000;9.194;2023-04-25T10:29:25;8.33;;;4.23;;
5475;SDS011;2760;50.000;9.194;2023-04-25T10:31:53;7.87;;;4.70;;
5475;SDS011;2760;50.000;9.194;2023-04-25T10:34:23;7.90;;;4.40;;
5475;SDS011;2760;50.000;9.194;2023-04-25T10:37:08;4.63;;;3.77;;
5475;SDS011;2760;50.000;9.194;2023-04-25T10:39:37;7.63;;;4.47;;
5475;SDS011;2760;50.000;9.194;2023-04-25T10:42:06;11.90;;;4.30;;
5475;SDS011;2760;50.000;9.194;2023-04-25T10:44:36;8.40;;;4.60;;
5475;SDS011;2760;50.000;9.194;2023-04-25T10:47:05;4.90;;;4.40;;
5475;SDS011;2760;50.000;9.194;2023-04-25T10:49:33;7.40;;;4.10;;
5475;SDS011;2760;50.000;9.194;2023-04-25T10:52:11;7.70;;;4.77;;
5475;SDS011;2760;50.000;9.194;2023-04-25T10:54:40;10.03;;;4.30;;
5475;SDS011;2760;50.000;9.194;2023-04-25T10:59:56;10.77;;;3.70;;
5475;SDS011;2760;50.000;9.194;2023-04-25T11:02:26;8.83;;;4.10;;
5475;SDS011;2760;50.000;9.194;2023-04-25T11:04:54;10.77;;;3.83;;
5475;SDS011;2760;50.000;9.194;2023-04-25T11:07:23;5.27;;;4.40;;
5475;SDS011;2760;50.000;9.194;2023-04-25T11:10:00;6.50;;;4.73;;
5475;SDS011;2760;50.000;9.194;2023-04-25T11:12:29;14.77;;;4.83;;
5475;SDS011;2760;50.000;9.194;2023-04-25T11:15:02;13.27;;;5.73;;
5475;SDS011;2760;50.000;9.194;2023-04-25T11:17:31;9.93;;;5.23;;
5475;SDS011;2760;50.000;9.194;2023-04-25T11:19:58;9.23;;;4.77;;
5475;SDS011;2760;50.000;9.194;2023-04-25T11:22:26;12.23;;;4.63;;
5475;SDS011;2760;50.000;9.194;2023-04-25T11:24:55;13.70;;;4.37;;
5475;SDS011;2760;50.000;9.194;2023-04-25T11:27:22;7.70;;;5.50;;
5475;SDS011;2760;50.000;9.194;2023-04-25T11:29:50;7.43;;;5.20;;
5475;SDS011;2760;50.000;9.194;2023-04-25T11:32:18;11.93;;;5.20;;
5475;SDS011;2760;50.000;9.194;2023-04-25T11:34:46;22.97;;;9.10;;
5475;SDS011;2760;50.000;9.194;2023-04-25T11:37:13;7.73;;;5.70;;
5475;SDS011;2760;50.000;9.194;2023-04-25T11:39:44;8.00;;;5.00;;
5475;SDS011;2760;50.000;9.194;2023-04-25T11:42:12;7.00;;;5.20;;
5475;SDS011;2760;50.000;9.194;2023-04-25T11:44:39;5.53;;;4.97;;
5475;SDS011;2760;50.000;9.194;2023-04-25T11:47:07;11.00;;;5.30;;
5475;SDS011;2760;50.000;9.194;2023-04-25T11:49:38;11.10;;;4.73;;
5475;SDS011;2760;50.000;9.194;2023-04-25T11:52:06;8.37;;;5.33;;
5475;SDS011;2760;50.000;9.194;2023-04-25T11:54:35;6.20;;;4.23;;
5475;SDS011;2760;50.000;9.194;2023-04-25T11:57:02;8.27;;;4.63;;
5475;SDS011;2760;50.000;9.194;2023-04-25T11:59:29;4.60;;;4.13;;
5475;SDS011;2760;50.000;9.194;2023-04-25T12:01:56;8.80;;;4.40;;
5475;SDS011;2760;50.000;9.194;2023-04-25T12:04:29;6.63;;;3.70;;
5475;SDS011;2760;50.000;9.194;2023-04-25T12:06:58;5.70;;;4.30;;
5475;SDS011;2760;50.000;9.194;2023-04-25T12:09:30;14.13;;;4.83;;
5475;SDS011;2760;50.000;9.194;2023-04-25T12:11:59;8.80;;;4.50;;
5475;SDS011;2760;50.000;9.194;2023-04-25T12:14:29;7.00;;;4.37;;
5475;SDS011;2760;50.000;9.194;2023-04-25T12:16:59;9.97;;;4.73;;
5475;SDS011;2760;50.000;9.194;2023-04-25T12:19:31;4.90;;;3.50;;
5475;SDS011;2760;50.000;9.194;2023-04-25T12:22:01;4.17;;;3.60;;
5475;SDS011;2760;50.000;9.194;2023-04-25T12:24:32;5.70;;;3.50;;
5475;SDS011;2760;50.000;9.194;2023-04-25T12:27:00;11.77;;;4.03;;
5475;SDS011;2760;50.000;9.194;2023-04-25T12:29:30;7.43;;;2.87;;
5475;SDS011;2760;50.000;9.194;2023-04-25T12:31:59;3.97;;;3.03;;
5475;SDS011;2760;50.000;9.194;2023-04-25T12:34:27;4.40;;;3.57;;
5475;SDS011;2760;50.000;9.194;2023-04-25T12:36:57;10.20;;;3.80;;
5475;SDS011;2760;50.000;9.194;2023-04-25T12:39:27;7.80;;;3.40;;
5475;SDS011;2760;50.000;9.194;2023-04-25T12:41:55;4.57;;;3.90;;
5475;SDS011;2760;50.000;9.194;2023-04-25T12:44:23;11.93;;;4.30;;
5475;SDS011;2760;50.000;9.194;2023-04-25T12:46:50;8.90;;;4.30;;
5475;SDS011;2760;50.000;9.194;2023-04-25T12:49:17;6.23;;;3.70;;
5475;SDS011;2760;50.000;9.194;2023-04-25T12:51:44;8.40;;;3.47;;
5475;SDS011;2760;50.000;9.194;2023-04-25T12:54:11;9.37;;;3.60;;
5475;SDS011;2760;50.000;9.194;2023-04-25T12:56:41;6.67;;;3.37;;
5475;SDS011;2760;50.000;9.194;2023-04-25T12:59:09;6.23;;;4.10;;
5475;SDS011;2760;50.000;9.194;2023-04-25T13:01:37;6.63;;;3.17;;
5475;SDS011;2760;50.000;9.194;2023-04-25T13:04:06;10.67;;;3.10;;
5475;SDS011;2760;50.000;9.194;2023-04-25T13:06:33;8.53;;;3.20;;
5475;SDS011;2760;50.000;9.194;2023-04-25T13:09:01;6.90;;;2.83;;
5475;SDS011;2760;50.000;9.194;2023-04-25T13:11:28;6.23;;;2.97;;
5475;SDS011;2760;50.000;9.194;2023-04-25T13:13:57;8.47;;;4.07;;
5475;SDS011;2760;50.000;9.194;2023-04-25T13:16:25;9.70;;;3.87;;
5475;SDS011;2760;50.000;9.194;2023-04-25T13:18:52;8.97;;;3.17;;
5475;SDS011;2760;50.000;9.194;2023-04-25T13:21:21;2.93;;;2.60;;
5475;SDS011;2760;50.000;9.194;2023-04-25T13:23:48;6.97;;;3.67;;
5475;SDS011;2760;50.000;9.194;2023-04-25T13:26:15;14.43;;;4.03;;
5475;SDS011;2760;50.000;9.194;2023-04-25T13:28:42;11.57;;;3.27;;
5475;SDS011;2760;50.000;9.194;2023-04-25T13:31:11;3.97;;;3.07;;
5475;SDS011;2760;50.000;9.194;2023-04-25T13:33:38;5.57;;;3.07;;
5475;SDS011;2760;50.000;9.194;2023-04-25T13:36:05;6.33;;;3.43;;
5475;SDS011;2760;50.000;9.194;2023-04-25T13:38:33;11.90;;;4.77;;
5475;SDS011;2760;50.000;9.194;2023-04-25T13:41:00;5.70;;;3.17;;
5475;SDS011;2760;50.000;9.194;2023-04-25T13:43:27;7.40;;;2.70;;
5475;SDS011;2760;50.000;9.194;2023-04-25T13:45:54;7.80;;;3.37;;
5475;SDS011;2760;50.000;9.194;2023-04-25T13:48:23;7.20;;;3.47;;
5475;SDS011;2760;50.000;9.194;2023-04-25T13:50:52;4.80;;;2.97;;
5475;SDS011;2760;50.000;9.194;2023-04-25T13:53:19;5.40;;;3.00;;
5475;SDS011;2760;50.000;9.194;2023-04-25T13:55:46;4.57;;;2.80;;
5475;SDS011;2760;50.000;9.194;2023-04-25T13:58:13;7.20;;;3.17;;
5475;SDS011;2760;50.000;9.194;2023-04-25T14:00:40;4.93;;;2.87;;
5475;SDS011;2760;50.000;9.194;2023-04-25T14:03:11;7.33;;;3.47;;
5475;SDS011;2760;50.000;9.194;2023-04-25T14:05:39;13.40;;;4.30;;
5475;SDS011;2760;50.000;9.194;2023-04-25T14:08:07;5.63;;;3.00;;
5475;SDS011;2760;50.000;9.194;2023-04-25T14:10:35;12.57;;;3.43;;
5475;SDS011;2760;50.000;9.194;2023-04-25T14:13:02;8.68;;;4.00;;
5475;SDS011;2760;50.000;9.194;2023-04-25T14:15:30;6.20;;;3.17;;
5475;SDS011;2760;50.000;9.194;2023-04-25T14:17:58;11.60;;;3.30;;
5475;SDS011;2760;50.000;9.194;2023-04-25T14:20:26;11.67;;;5.03;;
5475;SDS011;2760;50.000;9.194;2023-04-25T14:22:55;8.33;;;3.43;;
5475;SDS011;2760;50.000;9.194;2023-04-25T14:25:23;6.80;;;3.53;;
5475;SDS011;2760;50.000;9.194;2023-04-25T14:27:51;10.97;;;4.33;;
5475;SDS011;2760;50.000;9.194;2023-04-25T14:30:18;10.50;;;3.67;;
5475;SDS011;2760;50.000;9.194;2023-04-25T14:32:47;12.20;;;3.07;;
5475;SDS011;2760;50.000;9.194;2023-04-25T14:35:15;5.23;;;3.10;;
5475;SDS011;2760;50.000;9.194;2023-04-25T14:37:43;7.50;;;3.30;;
5475;SDS011;2760;50.000;9.194;2023-04-25T14:40:11;4.30;;;3.40;;
5475;SDS011;2760;50.000;9.194;2023-04-25T14:42:40;4.77;;;3.13;;
5475;SDS011;2760;50.000;9.194;2023-04-25T14:45:07;7.83;;;3.97;;
5475;SDS011;2760;50.000;9.194;2023-04-25T14:47:36;8.60;;;3.00;;
5475;SDS011;2760;50.000;9.194;2023-04-25T14:50:03;10.73;;;3.47;;
5475;SDS011;2760;50.000;9.194;2023-04-25T14:52:32;5.60;;;3.43;;
5475;SDS011;2760;50.000;9.194;2023-04-25T14:55:00;12.83;;;3.90;;
5475;SDS011;2760;50.000;9.194;2023-04-25T14:57:31;14.33;;;3.80;;
5475;SDS011;2760;50.000;9.194;2023-04-25T14:59:58;9.43;;;3.73;;
5475;SDS011;2760;50.000;9.194;2023-04-25T15:02:26;7.80;;;4.00;;
5475;SDS011;2760;50.000;9.194;2023-04-25T15:04:53;4.27;;;3.13;;
5475;SDS011;2760;50.000;9.194;2023-04-25T15:07:21;16.73;;;3.70;;
5475;SDS011;2760;50.000;9.194;2023-04-25T15:09:48;8.23;;;3.70;;
5475;SDS011;2760;50.000;9.194;2023-04-25T15:12:15;10.43;;;3.90;;
5475;SDS011;2760;50.000;9.194;2023-04-25T15:14:43;6.37;;;4.03;;
5475;SDS011;2760;50.000;9.194;2023-04-25T15:17:10;8.03;;;4.00;;
5475;SDS011;2760;50.000;9.194;2023-04-25T15:19:39;6.73;;;3.77;;
5475;SDS011;2760;50.000;9.194;2023-04-25T15:22:06;14.00;;;4.50;;
5475;SDS011;2760;50.000;9.194;2023-04-25T15:24:33;7.83;;;3.37;;
5475;SDS011;2760;50.000;9.194;2023-04-25T15:27:00;7.07;;;3.87;;
5475;SDS011;2760;50.000;9.194;2023-04-25T15:29:27;11.77;;;4.40;;
5475;SDS011;2760;50.000;9.194;2023-04-25T15:31:56;9.77;;;3.80;;